• Join FlightAware (Why Join?)
  • Login
  • US Flag 
09:05PM EDT


 

Airport Tracker/Info


-or-


 

Live Flight TrackerFlight Track Log ✈ RPA1631 ✈ 19-Apr-2013 ✈ KMSN - KDEN

Flight Track Log - Related Links

Times and Time Zones

All times are in EDT time to prevent confusion due to time zone crossing. See the RPA1631 flight status page for this flight to view local times or setup timezone preferences in your user account.

Time Position Orientation Groundspeed Altitude Reporting Facility
EDT Latitude Longitude Course Direction KTS MPH feet Rate Location/Type
09:13AM 43.0942 -89.3614 270° West 139 160 2,900  Level Minneapolis Center
09:14AM 43.0981 -89.4347 274° West 178 205 4,400 2,160 Climbing Minneapolis Center
09:15AM 43.0994 -89.5364 271° West 221 254 7,400 2,400 Climbing Minneapolis Center
09:16AM 43.1008 -89.6292 271° West 238 274 9,400 1,980 Climbing Minneapolis Center
09:17AM 43.1025 -89.7339 271° West 264 304 11,500 2,280 Climbing Minneapolis Center
09:18AM 43.1333 -90.2231 270° West  Level FlightAware Approximate
09:18AM 43.1025 -89.8431 270° West 286 329 14,300  Level Chicago Center
09:19AM 43.1039 -89.9667 271° West 302 348 16,500 2,160 Climbing Chicago Center
09:20AM 43.1072 -90.0867 272° West 315 362 18,800 2,100 Climbing Chicago Center
09:21AM 43.1067 -90.2119 270° West 325 374 20,900 2,220 Climbing Chicago Center
09:22AM 43.1092 -90.3619 271° West 336 387 23,400 2,100 Climbing Chicago Center
09:23AM 43.1094 -90.4939 270° West 347 399 25,300 1,740 Climbing Chicago Center
09:24AM 43.1106 -90.6289 271° West 357 411 27,000 1,440 Climbing Chicago Center
09:25AM 43.1094 -90.7661 269° West 365 420 28,300 1,200 Climbing Chicago Center
09:26AM 43.1097 -90.9103 270° West 381 438 29,500 1,260 Climbing Chicago Center
09:27AM 43.1108 -91.0861 271° West 391 450 30,900 1,260 Climbing Chicago Center
09:28AM 43.1117 -91.2344 270° West 395 455 32,200 1,140 Climbing Chicago Center
09:29AM 43.1125 -91.3833 270° West 398 458 33,300 780 Climbing Chicago Center
09:30AM 43.1119 -91.5600 270° West 397 457 34,000 300 Climbing Minneapolis Center
09:31AM 43.1117 -91.7139 270° West 407 468 34,000  Level Minneapolis Center
09:32AM 43.1108 -91.8667 270° West 409 471 34,000  Level Minneapolis Center
09:33AM 43.1089 -92.0197 269° West 409 471 34,000  Level Minneapolis Center
09:34AM 43.1083 -92.1717 270° West 406 467 34,000  Level Minneapolis Center
09:35AM 43.1064 -92.3542 269° West 406 467 34,000  Level Minneapolis Center
09:36AM 43.1053 -92.5103 269° West 413 475 34,000  Level Minneapolis Center
09:37AM 43.1031 -92.6644 269° West 412 474 34,000  Level Minneapolis Center
09:38AM 43.1014 -92.8181 269° West 409 471 34,000  Level Minneapolis Center
09:39AM 43.0989 -92.9739 269° West 412 474 34,000  Level Minneapolis Center
09:41AM 43.0978 -93.1286 269° West 411 473 34,000  Level Minneapolis Center
09:42AM 43.0956 -93.3122 269° West 407 468 34,000  Level Minneapolis Center
09:43AM 43.0831 -93.4656 264° West 408 470 34,000  Level Minneapolis Center
09:44AM 43.0675 -93.6167 262° West 406 467 34,000  Level Minneapolis Center
09:45AM 43.0542 -93.7686 263° West 406 467 34,000  Level Minneapolis Center
09:46AM 43.0394 -93.9206 262° West 407 468 34,000  Level Minneapolis Center
09:47AM 43.0242 -94.0717 262° West 406 467 34,000  Level Minneapolis Center
09:48AM 43.0072 -94.2522 263° West 403 464 34,000  Level Minneapolis Center
09:49AM 42.9906 -94.4036 261° West 406 467 34,000  Level Minneapolis Center
09:50AM 42.9783 -94.5267 262° West 410 472 34,000  Level Minneapolis Center
09:51AM 42.9586 -94.7186 262° West 409 471 34,000  Level Minneapolis Center
09:52AM 42.9422 -94.8711 262° West 407 468 34,000  Level Minneapolis Center
09:53AM 42.9261 -95.0247 262° West 408 470 34,000  Level Minneapolis Center
09:54AM 42.9089 -95.1764 261° West 406 467 34,000  Level Minneapolis Center
09:55AM 42.8931 -95.3311 262° West 409 471 34,000  Level Minneapolis Center
09:56AM 42.8761 -95.4842 261° West 409 471 34,000  Level Minneapolis Center
09:57AM 42.8542 -95.6703 261° West 414 476 34,000  Level Minneapolis Center
09:58AM 42.8364 -95.8267 261° West 418 481 34,000  Level Minneapolis Center
09:59AM 42.8186 -95.9836 261° West 418 481 34,000  Level Minneapolis Center
10:00AM 42.8000 -96.1406 261° West 420 483 34,000  Level Minneapolis Center
10:01AM 42.7814 -96.2953 261° West 416 479 34,000  Level Minneapolis Center
10:02AM 42.7622 -96.4508 261° West 417 480 34,000  Level Minneapolis Center
10:03AM 42.7453 -96.6056 262° West 415 478 34,000  Level Minneapolis Center
10:04AM 42.7258 -96.7544 260° West 407 468 34,000  Level Minneapolis Center
10:05AM 42.7028 -96.9336 260° West 402 463 34,000  Level Minneapolis Center
10:06AM 42.6844 -97.0850 261° West 406 467 34,000  Level Minneapolis Center
10:07AM 42.6653 -97.2358 260° West 407 468 34,000  Level Minneapolis Center
10:08AM 42.6461 -97.3878 260° West 406 467 34,000  Level Minneapolis Center
10:09AM 42.6267 -97.5358 260° West 405 466 34,000  Level Minneapolis Center
10:10AM 42.6075 -97.6861 260° West 401 461 34,000  Level Minneapolis Center
10:11AM 42.5875 -97.8328 260° West 401 461 34,000  Level Minneapolis Center
10:12AM 42.5636 -98.0047 259° West 398 458 34,000  Level Minneapolis Center
10:13AM 42.5439 -98.1531 260° West 400 460 34,000  Level Minneapolis Center
10:14AM 42.5233 -98.3006 259° West 400 460 34,000  Level Minneapolis Center
10:15AM 42.5039 -98.4481 260° West 399 459 34,000  Level Minneapolis Center
10:16AM 42.4831 -98.5961 259° West 401 461 34,000  Level Minneapolis Center
10:17AM 42.4475 -98.7383 251° West 403 464 34,000  Level Minneapolis Center
10:19AM 42.3883 -98.8758 240° Southwest 422 486 34,000  Level Minneapolis Center
10:20AM 42.3231 -99.0367 241° Southwest 410 472 34,000  Level Minneapolis Center
10:21AM 42.2653 -99.1694 240° Southwest 410 472 34,000  Level Minneapolis Center
10:22AM 42.2097 -99.3022 241° Southwest 408 470 34,000  Level Minneapolis Center
10:23AM 42.1531 -99.4353 240° Southwest 409 471 34,000  Level Minneapolis Center
10:23AM 42.1292 -99.4908 240° Southwest 415 478 34,000  Level Denver Center
10:24AM 42.0586 -99.6536 240° Southwest 420 483 34,000  Level Denver Center
10:25AM 41.9992 -99.7942 240° Southwest 417 480 34,000  Level Denver Center
10:26AM 41.9439 -99.9211 240° Southwest 414 476 34,000  Level Denver Center
10:27AM 41.8886 -100.0483 240° Southwest 413 475 34,000  Level Denver Center
10:28AM 41.8247 -100.1972 240° Southwest 413 475 34,000  Level Denver Center
10:29AM 41.7667 -100.3261 239° Southwest 419 482 34,000  Level Denver Center
10:30AM 41.7006 -100.4769 240° Southwest 421 484 34,000  Level Denver Center
10:31AM 41.6433 -100.6058 239° Southwest 423 487 34,000  Level Denver Center
10:32AM 41.5772 -100.7564 240° Southwest 422 486 34,000  Level Denver Center
10:33AM 41.5192 -100.8856 239° Southwest 426 490 34,000  Level Denver Center
10:34AM 41.4219 -101.0147 225° Southwest 450 518 34,000  Level Denver Center
10:35AM 41.3339 -101.1206 222° Southwest 447 514 34,000  Level Denver Center
10:37AM 41.2342 -101.2453 223° Southwest 444 511 34,000  Level Denver Center
10:38AM 41.1869 -101.3783 245° Southwest 418 481 34,000  Level Denver Center
10:39AM 41.1411 -101.5322 248° West 406 467 34,000  Level Denver Center
10:40AM 41.1003 -101.6656 248° West 408 470 34,000  Level Denver Center
10:41AM 41.0531 -101.8217 248° West 411 473 34,000  Level Denver Center
10:42AM 41.0114 -101.9569 248° West 415 478 34,000  Level Denver Center
10:43AM 40.9686 -102.0919 247° West 416 479 34,000  Level Denver Center
10:44AM 40.9217 -102.2494 249° West 414 476 34,000  Level Denver Center
10:45AM 40.8786 -102.3844 247° West 417 480 34,000  Level Denver Center
10:46AM 40.8292 -102.5431 248° West 417 480 34,000  Level Denver Center
10:47AM 40.7864 -102.6767 247° West 414 476 34,000  Level Denver Center
10:48AM 40.7372 -102.8322 247° West 412 474 34,000  Level Denver Center
10:49AM 40.6933 -102.9706 247° West 410 472 34,000 -480 Level Denver Center
10:50AM 40.6475 -103.1097 247° West 412 474 33,100 -1,500 Descending Denver Center
10:51AM 40.6033 -103.2508 248° West 413 475 30,900 -2,100 Descending Denver Center
10:52AM 40.5586 -103.3856 246° West 399 459 28,800 -2,220 Descending Denver Center
10:53AM 40.5106 -103.5383 248° West 386 444 26,400 -2,160 Descending Denver Center
10:54AM 40.4689 -103.6622 246° West 372 428 24,400 -1,740 Descending Denver Center
10:55AM 40.4300 -103.7831 247° West 374 430 22,500 -2,040 Descending Denver Center
10:56AM 40.3808 -103.9322 247° West 340 391 19,800 -2,760 Descending Denver Center
10:57AM 40.3564 -104.0475 254° West 328 377 16,800 -2,040 Descending Denver Center
10:58AM 40.3547 -104.1519 269° West 289 333 15,700 -1,020 Descending Denver Center
10:59AM 40.3344 -104.2569 256° West 294 338 14,800 -1,260 Descending Denver Center
11:00AM 40.2833 -104.3453 233° Southwest 306 352 13,200 -1,620 Descending Denver Center
11:02AM 40.2308 -104.4344 232° Southwest 290 334 11,500 -1,560 Descending Denver Center
11:03AM 40.1836 -104.5189 234° Southwest 287 330 10,000 -1,620 Descending Denver Center
11:04AM 40.1294 -104.5961 227° Southwest 279 321 8,200 -1,500 Descending Denver Center
11:05AM 40.0622 -104.6439 209° Southwest 275 316 7,000 -600 Descending Denver Center
11:06AM 40.0044 -104.6819 207° Southwest 218 251 7,000 -300 Level Denver Center
11:07AM 39.9539 -104.6853 183° South 187 215 6,500 -660 Descending Denver Center
11:08AM 39.9133 -104.6867 182° South 152 175 5,700 -600 Descending Denver Center
11:09AM 39.8789 -104.6875 181° South 122 140 5,300 -420 Descending Denver Center
11:11AM 39.8617 -104.6732 190° South  Level Estimated
11:18AM 39.8617 -104.6732 190° South  Level Estimated
11:19AM 39.8617 -104.6732 190° South  Level Estimated